Time;durP1;ratioP1;P1;durP2;ratioP2;P2;SDS_P1;SDS_P2;PMS_P1;PMS_P2;Temp;Humidity;BMP_temperature;BMP_pressure;BME280_temperature;BME280_humidity;BME280_pressure;Samples;Min_cycle;Max_cycle;Signal;HPM_P1;HPM_P2
2023/12/05 00:00:51;;;;;;;15.40;10.95;;;;;;;4.05;100.00;99171.81;5032117;28;20449;-88
2023/12/05 00:03:16;;;;;;;16.48;11.85;;;;;;;4.06;100.00;99178.56;5030700;28;20025;-88
2023/12/05 00:05:41;;;;;;;16.20;12.05;;;;;;;4.05;100.00;99182.03;5032186;28;20026;-87
2023/12/05 00:08:07;;;;;;;17.92;11.77;;;;;;;4.10;100.00;99190.28;5032080;28;20365;-88
2023/12/05 00:10:32;;;;;;;16.40;12.32;;;;;;;4.01;100.00;99196.66;5032235;28;20021;-88
2023/12/05 00:13:00;;;;;;;17.92;12.77;;;;;;;4.08;100.00;99197.19;5032494;28;20017;-87
2023/12/05 00:15:25;;;;;;;19.17;12.98;;;;;;;4.03;100.00;99196.59;5050844;28;20610;-87
2023/12/05 00:17:51;;;;;;;18.85;12.85;;;;;;;4.08;100.00;99199.75;5052004;28;20111;-87
2023/12/05 00:20:16;;;;;;;17.13;11.98;;;;;;;4.07;100.00;99201.47;5051708;28;20021;-87
2023/12/05 00:22:42;;;;;;;17.73;12.60;;;;;;;4.01;100.00;99206.06;5051856;28;20036;-87
2023/12/05 00:25:08;;;;;;;19.75;13.27;;;;;;;4.11;100.00;99204.69;5051544;28;20044;-87
2023/12/05 00:27:34;;;;;;;16.88;12.40;;;;;;;4.06;100.00;99204.91;5051472;28;20021;-87
2023/12/05 00:29:59;;;;;;;17.75;13.38;;;;;;;4.05;100.00;99222.88;5031553;28;20461;-87
2023/12/05 00:32:24;;;;;;;21.00;11.55;;;;;;;4.24;100.00;99223.59;5032014;28;20053;-87
2023/12/05 00:34:50;;;;;;;17.63;12.68;;;;;;;4.20;100.00;99231.50;5032022;28;20022;-87
2023/12/05 00:37:15;;;;;;;16.95;12.48;;;;;;;4.11;100.00;99227.66;5031816;28;20025;-87
2023/12/05 00:39:41;;;;;;;15.98;12.95;;;;;;;4.21;100.00;99233.94;5031968;28;20032;-87
2023/12/05 00:42:07;;;;;;;15.75;12.32;;;;;;;4.17;100.00;99236.72;5031708;28;20030;-87
2023/12/05 00:44:32;;;;;;;15.27;11.77;;;;;;;4.16;100.00;99246.13;5030922;28;20084;-88
2023/12/05 00:47:03;;;;;;;17.25;12.95;;;;;;;4.11;100.00;99242.97;5031975;28;20022;-88
2023/12/05 00:49:28;;;;;;;16.27;11.93;;;;;;;4.17;100.00;99241.84;5031653;28;20018;-88
2023/12/05 00:51:53;;;;;;;15.90;11.15;;;;;;;4.21;100.00;99248.47;5031677;28;20030;-88
2023/12/05 00:54:19;;;;;;;14.13;11.25;;;;;;;4.05;100.00;99248.41;5031801;28;20049;-88
2023/12/05 00:56:44;;;;;;;14.02;11.90;;;;;;;4.04;100.00;99244.19;5031609;28;20026;-88
2023/12/05 00:59:09;;;;;;;16.63;11.68;;;;;;;4.05;100.00;99239.03;5030924;28;20021;-88
2023/12/05 01:01:35;;;;;;;13.85;10.88;;;;;;;4.12;100.00;99244.66;5030268;28;20079;-88
2023/12/05 01:04:00;;;;;;;15.40;11.65;;;;;;;4.15;100.00;99243.69;5031453;28;20464;-88
2023/12/05 01:06:26;;;;;;;16.13;11.85;;;;;;;4.03;100.00;99247.66;5031585;28;20025;-88
2023/12/05 01:08:51;;;;;;;16.45;11.93;;;;;;;4.03;100.00;99255.31;5031311;28;20488;-88
2023/12/05 01:11:16;;;;;;;14.38;9.77;;;;;;;4.08;100.00;99259.28;5031428;28;20540;-88
2023/12/05 01:13:43;;;;;;;13.05;10.30;;;;;;;4.07;100.00;99261.91;5030786;28;20031;-88
2023/12/05 01:16:09;;;;;;;13.85;10.55;;;;;;;4.18;100.00;99254.53;5031405;28;20032;-88
2023/12/05 01:18:34;;;;;;;15.57;9.82;;;;;;;4.16;100.00;99261.44;5031493;28;20029;-89
2023/12/05 01:21:00;;;;;;;12.02;9.23;;;;;;;4.20;100.00;99267.25;5031405;28;20511;-88
2023/12/05 01:23:25;;;;;;;12.43;9.35;;;;;;;4.20;100.00;99268.06;5031365;28;20034;-87
2023/12/05 01:25:50;;;;;;;12.15;9.52;;;;;;;4.12;100.00;99265.09;5031403;28;20075;-88
2023/12/05 01:28:16;;;;;;;11.73;9.15;;;;;;;4.04;100.00;99262.88;5034458;28;20082;-88
2023/12/05 01:30:41;;;;;;;11.50;9.02;;;;;;;4.06;100.00;99262.81;5035145;28;20025;-88
2023/12/05 01:33:07;;;;;;;12.38;8.48;;;;;;;4.11;100.00;99268.53;5034836;28;20468;-88
2023/12/05 01:35:32;;;;;;;10.80;8.38;;;;;;;4.12;100.00;99270.19;5033499;28;20052;-88
2023/12/05 01:37:57;;;;;;;11.98;8.55;;;;;;;3.89;100.00;99273.84;5034883;28;20022;-87
2023/12/05 01:40:23;;;;;;;9.90;8.35;;;;;;;4.01;100.00;99277.53;5034527;28;20029;-87
2023/12/05 01:42:48;;;;;;;14.00;9.60;;;;;;;4.07;100.00;99282.31;5034224;28;20030;-88
2023/12/05 01:45:13;;;;;;;10.20;8.40;;;;;;;4.11;100.00;99283.03;5034649;28;20041;-88
2023/12/05 01:47:40;;;;;;;9.75;7.72;;;;;;;4.03;100.00;99291.06;5034588;28;20025;-87
2023/12/05 01:50:10;;;;;;;9.80;7.50;;;;;;;3.99;100.00;99303.13;5034532;28;20026;-88
2023/12/05 01:52:39;;;;;;;10.10;7.68;;;;;;;4.03;100.00;99301.28;5034374;28;20025;-88
2023/12/05 01:55:06;;;;;;;10.25;7.55;;;;;;;4.02;100.00;99309.81;5034558;28;20025;-88
2023/12/05 01:57:33;;;;;;;9.18;7.18;;;;;;;4.05;100.00;99317.34;5033162;28;20029;-88
2023/12/05 01:59:58;;;;;;;9.15;6.97;;;;;;;4.03;100.00;99316.59;5033968;28;20533;-89
2023/12/05 02:02:24;;;;;;;9.80;7.03;;;;;;;4.02;100.00;99314.91;5034297;28;20033;-88
2023/12/05 02:04:49;;;;;;;13.75;7.80;;;;;;;4.04;100.00;99318.22;5034100;28;20033;-88
2023/12/05 02:07:15;;;;;;;9.38;7.25;;;;;;;4.13;100.00;99325.44;5033203;28;20033;-88
2023/12/05 02:09:42;;;;;;;9.15;7.00;;;;;;;4.05;100.00;99325.00;5034423;28;20045;-88
2023/12/05 02:12:08;;;;;;;9.90;7.65;;;;;;;4.00;100.00;99324.38;5034322;28;20033;-89
2023/12/05 02:14:33;;;;;;;8.77;7.18;;;;;;;4.13;100.00;99333.13;5034108;28;20486;-88
2023/12/05 02:17:30;;;;;;;7.47;6.60;;;;;;;4.11;100.00;99324.69;5033394;28;20030;-88
2023/12/05 02:20:28;;;;;;;9.98;7.13;;;;;;;4.09;100.00;99321.38;5034465;28;20029;-88
2023/12/05 02:23:14;;;;;;;8.23;6.68;;;;;;;4.00;100.00;99324.38;5033905;28;20055;-88
2023/12/05 02:25:57;;;;;;;9.45;6.93;;;;;;;4.08;100.00;99327.41;5034060;28;20025;-88
2023/12/05 02:28:24;;;;;;;8.07;5.88;;;;;;;4.04;100.00;99325.88;5034117;28;20033;-88
2023/12/05 02:30:50;;;;;;;8.05;6.35;;;;;;;4.01;100.00;99338.81;5033432;28;20029;-88
2023/12/05 02:33:16;;;;;;;7.75;6.00;;;;;;;4.02;100.00;99336.19;5032731;28;20040;-88
2023/12/05 02:35:42;;;;;;;7.78;6.15;;;;;;;4.12;100.00;99339.13;5033968;28;20376;-88
2023/12/05 02:38:29;;;;;;;8.13;5.88;;;;;;;4.13;100.00;99343.31;5033635;28;20076;-89
2023/12/05 02:41:07;;;;;;;7.82;5.55;;;;;;;4.18;100.00;99350.78;5032795;28;20044;-89
2023/12/05 02:43:45;;;;;;;7.28;5.82;;;;;;;4.08;100.00;99350.38;5033581;28;20029;-89
2023/12/05 02:46:12;;;;;;;7.55;5.60;;;;;;;4.20;100.00;99349.78;5033381;28;20068;-88
2023/12/05 02:48:38;;;;;;;5.18;4.60;;;;;;;4.18;100.00;99353.31;5033642;28;20028;-88
2023/12/05 02:51:04;;;;;;;6.10;5.00;;;;;;;4.18;100.00;99351.59;5032271;28;20423;-89
2023/12/05 02:53:29;;;;;;;6.40;5.18;;;;;;;4.17;100.00;99357.59;5032162;28;20029;-88
2023/12/05 02:55:54;;;;;;;5.85;5.20;;;;;;;4.19;100.00;99358.34;5033521;28;20032;-88
2023/12/05 02:58:20;;;;;;;6.60;5.47;;;;;;;4.18;100.00;99366.09;5033335;28;20025;-88
2023/12/05 03:00:45;;;;;;;6.22;4.70;;;;;;;4.21;100.00;99365.94;5032795;28;20033;-89
2023/12/05 03:03:11;;;;;;;5.70;4.75;;;;;;;3.97;100.00;99378.16;5033184;28;20475;-88
2023/12/05 03:05:36;;;;;;;4.55;3.90;;;;;;;4.06;100.00;99368.31;5031867;28;20353;-89
2023/12/05 03:08:01;;;;;;;7.20;4.45;;;;;;;4.16;100.00;99368.72;5033037;28;20045;-89
2023/12/05 03:10:26;;;;;;;4.85;4.35;;;;;;;4.16;100.00;99368.72;5033176;28;20056;-89
2023/12/05 03:12:52;;;;;;;5.00;4.40;;;;;;;4.07;100.00;99372.53;5033622;28;20025;-89
2023/12/05 03:15:17;;;;;;;5.75;4.55;;;;;;;4.19;100.00;99383.88;5032948;28;20056;-88
2023/12/05 03:17:43;;;;;;;5.18;4.47;;;;;;;4.27;100.00;99376.69;5032183;28;20060;-89
2023/12/05 03:20:08;;;;;;;5.30;4.57;;;;;;;4.22;100.00;99378.66;5032868;28;20057;-88
2023/12/05 03:22:34;;;;;;;5.72;4.75;;;;;;;4.26;100.00;99374.19;5032671;28;20041;-88
2023/12/05 03:24:59;;;;;;;6.03;4.88;;;;;;;4.21;100.00;99384.63;5032506;28;20026;-89
2023/12/05 03:27:24;;;;;;;5.95;5.28;;;;;;;4.25;100.00;99391.25;5032884;28;20021;-89
2023/12/05 03:29:50;;;;;;;6.22;4.57;;;;;;;4.28;100.00;99387.72;5031500;28;20024;-89
2023/12/05 03:32:15;;;;;;;5.93;4.90;;;;;;;4.24;100.00;99391.31;5030982;28;20034;-89
2023/12/05 03:34:41;;;;;;;5.90;4.93;;;;;;;4.30;100.00;99385.94;5032331;28;20033;-89
2023/12/05 03:37:06;;;;;;;5.93;4.72;;;;;;;4.31;100.00;99385.00;5032262;28;20431;-89
2023/12/05 03:39:31;;;;;;;6.15;5.05;;;;;;;4.34;100.00;99382.34;5032419;28;20033;-91
2023/12/05 03:41:57;;;;;;;6.00;4.97;;;;;;;4.22;100.00;99391.41;5031203;28;20021;-90
2023/12/05 03:44:22;;;;;;;6.15;5.43;;;;;;;4.32;100.00;99398.59;5032217;28;20499;-88
2023/12/05 03:46:47;;;;;;;5.68;4.60;;;;;;;4.24;100.00;99396.44;5032245;28;20029;-88
2023/12/05 03:49:13;;;;;;;5.57;4.60;;;;;;;4.22;100.00;99399.06;5030570;28;20031;-88
2023/12/05 03:51:38;;;;;;;6.97;4.65;;;;;;;4.19;100.00;99394.09;5031847;28;20137;-88
2023/12/05 03:54:04;;;;;;;5.75;4.57;;;;;;;4.15;100.00;99399.44;5032007;28;20067;-88
2023/12/05 03:56:29;;;;;;;5.90;4.47;;;;;;;4.23;100.00;99395.59;5031054;28;20079;-88
2023/12/05 03:58:54;;;;;;;5.28;4.38;;;;;;;4.15;100.00;99397.72;5032287;28;20483;-87
2023/12/05 04:01:20;;;;;;;4.78;4.18;;;;;;;4.11;100.00;99405.59;5032302;28;20578;-90
2023/12/05 04:03:45;;;;;;;7.13;4.25;;;;;;;4.28;100.00;99418.38;5030503;28;20022;-88
2023/12/05 04:06:22;;;;;;;5.80;3.78;;;;;;;4.24;100.00;99411.75;5030536;28;20044;-88
2023/12/05 04:08:51;;;;;;;4.13;3.72;;;;;;;4.29;100.00;99415.75;5031859;28;20024;-88
2023/12/05 04:11:17;;;;;;;4.00;3.55;;;;;;;4.31;100.00;99414.84;5031912;28;20033;-88
2023/12/05 04:13:43;;;;;;;4.07;3.60;;;;;;;4.23;100.00;99418.59;5031889;28;20360;-87
2023/12/05 04:16:09;;;;;;;5.00;3.67;;;;;;;4.29;100.00;99415.75;5030134;28;20044;-88
2023/12/05 04:18:34;;;;;;;4.50;3.63;;;;;;;4.33;100.00;99428.38;5031943;28;20076;-88
2023/12/05 04:21:00;;;;;;;4.25;3.63;;;;;;;4.40;100.00;99424.63;5047256;28;20034;-88
2023/12/05 04:23:25;;;;;;;4.28;3.63;;;;;;;4.36;100.00;99426.50;5031639;28;20033;-88
2023/12/05 04:25:50;;;;;;;4.47;3.65;;;;;;;4.29;100.00;99435.34;5031682;28;20121;-88
2023/12/05 04:28:15;;;;;;;3.67;3.20;;;;;;;4.34;100.00;99440.25;5032425;28;20025;-88
2023/12/05 04:30:41;;;;;;;3.80;3.22;;;;;;;4.33;100.00;99430.94;5031641;28;20526;-87
2023/12/05 04:33:06;;;;;;;5.25;2.97;;;;;;;4.34;100.00;99440.25;5032211;28;20029;-87
2023/12/05 04:35:32;;;;;;;3.92;3.22;;;;;;;4.28;100.00;99442.19;5031678;28;20025;-88
2023/12/05 04:37:57;;;;;;;3.92;3.30;;;;;;;4.28;100.00;99443.91;5032050;28;20112;-88
2023/12/05 04:40:22;;;;;;;3.90;3.50;;;;;;;4.37;100.00;99450.34;5031920;28;20079;-88
2023/12/05 04:42:48;;;;;;;4.50;3.80;;;;;;;4.38;100.00;99450.25;5031959;28;20025;-88
2023/12/05 04:45:13;;;;;;;3.50;3.20;;;;;;;4.41;100.00;99444.16;5031648;28;20036;-88
2023/12/05 04:47:39;;;;;;;3.42;3.10;;;;;;;4.43;100.00;99442.34;5031814;28;20028;-88
2023/12/05 04:50:05;;;;;;;3.65;3.28;;;;;;;4.47;100.00;99454.09;5030166;28;20030;-88
2023/12/05 04:52:31;;;;;;;4.10;2.83;;;;;;;4.45;100.00;99455.88;5031685;28;20025;-88
2023/12/05 04:54:57;;;;;;;3.22;2.80;;;;;;;4.47;100.00;99460.03;5032043;28;20042;-88
2023/12/05 04:57:22;;;;;;;3.60;2.95;;;;;;;4.51;100.00;99465.81;5030393;28;20029;-88
2023/12/05 04:59:47;;;;;;;4.30;3.65;;;;;;;4.58;100.00;99461.22;5031613;28;20380;-87
2023/12/05 05:02:13;;;;;;;2.88;2.58;;;;;;;4.48;100.00;99476.19;5035753;28;20038;-88
2023/12/05 05:04:38;;;;;;;4.13;2.63;;;;;;;4.55;100.00;99472.44;5035597;28;20072;-88
2023/12/05 05:07:04;;;;;;;2.83;2.55;;;;;;;4.52;100.00;99475.13;5035008;28;20387;-89
2023/12/05 05:09:30;;;;;;;4.53;2.90;;;;;;;4.45;100.00;99481.44;5035625;28;20152;-88
2023/12/05 05:11:56;;;;;;;2.88;2.40;;;;;;;4.39;100.00;99476.59;5035612;28;20433;-88
2023/12/05 05:14:21;;;;;;;3.88;2.60;;;;;;;4.38;100.00;99480.06;5035429;28;20101;-88
2023/12/05 05:16:46;;;;;;;3.65;2.55;;;;;;;4.40;100.00;99484.22;5035821;28;20049;-88
2023/12/05 05:19:12;;;;;;;5.20;3.42;;;;;;;4.31;100.00;99486.38;5035453;28;20388;-88
2023/12/05 05:21:37;;;;;;;3.65;2.80;;;;;;;4.34;100.00;99484.50;5034811;28;20080;-88
2023/12/05 05:24:03;;;;;;;2.95;2.55;;;;;;;4.41;100.00;99487.59;5034915;28;20120;-88
2023/12/05 05:26:28;;;;;;;2.83;2.55;;;;;;;4.31;100.00;99483.81;5035332;28;20025;-88
2023/12/05 05:28:53;;;;;;;4.38;3.00;;;;;;;4.24;100.00;99484.13;5034900;28;20018;-88
2023/12/05 05:31:19;;;;;;;4.07;3.35;;;;;;;4.36;100.00;99497.19;5035151;28;20083;-89
2023/12/05 05:33:44;;;;;;;4.00;3.33;;;;;;;4.33;100.00;99507.56;5034543;28;20191;-88
2023/12/05 05:36:12;;;;;;;3.80;3.20;;;;;;;4.37;100.00;99503.97;5035696;28;20091;-88
2023/12/05 05:38:37;;;;;;;5.57;4.15;;;;;;;4.36;100.00;99508.22;5034731;28;20030;-88
2023/12/05 05:41:07;;;;;;;7.13;4.78;;;;;;;4.36;100.00;99512.53;5034929;28;20022;-88
2023/12/05 05:43:32;;;;;;;8.55;4.45;;;;;;;4.41;100.00;99515.69;5034634;28;20033;-88
2023/12/05 05:45:58;;;;;;;6.07;4.78;;;;;;;4.48;100.00;99517.06;5034509;28;20021;-88
2023/12/05 05:48:23;;;;;;;5.97;4.90;;;;;;;4.41;100.00;99513.13;5034157;28;20032;-88
2023/12/05 05:50:49;;;;;;;6.90;5.22;;;;;;;4.49;100.00;99519.56;5034552;28;20387;-88
2023/12/05 05:53:14;;;;;;;6.88;5.25;;;;;;;4.40;100.00;99519.16;5034435;28;20067;-88
2023/12/05 05:55:39;;;;;;;8.25;5.68;;;;;;;4.43;100.00;99524.13;5034382;28;20518;-87
2023/12/05 05:58:05;;;;;;;8.27;6.63;;;;;;;4.26;100.00;99532.56;5034531;28;20435;-88
2023/12/05 06:00:30;;;;;;;8.10;5.72;;;;;;;4.44;100.00;99530.91;5034203;28;20029;-88
2023/12/05 06:02:57;;;;;;;8.25;6.30;;;;;;;4.28;100.00;99525.66;5034357;28;20097;-88
2023/12/05 06:05:24;;;;;;;9.32;7.15;;;;;;;4.43;100.00;99535.16;5034331;28;20487;-88
2023/12/05 06:07:50;;;;;;;13.00;7.10;;;;;;;4.42;100.00;99537.81;5033003;28;20475;-88
2023/12/05 06:10:16;;;;;;;10.52;7.05;;;;;;;4.47;100.00;99541.78;5034133;28;20035;-88
2023/12/05 06:12:41;;;;;;;10.35;7.03;;;;;;;4.42;100.00;99546.28;5033610;28;20067;-88
2023/12/05 06:15:07;;;;;;;11.65;8.00;;;;;;;4.30;100.00;99539.19;5034195;28;20456;-88
2023/12/05 06:17:32;;;;;;;15.45;8.50;;;;;;;4.41;100.00;99554.00;5034303;28;20037;-88
2023/12/05 06:19:58;;;;;;;14.25;10.10;;;;;;;4.41;100.00;99548.91;5033351;28;21522;-87
2023/12/05 06:22:23;;;;;;;17.75;11.45;;;;;;;4.40;100.00;99554.91;5033742;28;20045;-87
2023/12/05 06:24:48;;;;;;;22.08;12.38;;;;;;;4.40;100.00;99557.47;5033761;28;20017;-88
2023/12/05 06:27:14;;;;;;;20.50;11.32;;;;;;;4.34;100.00;99561.16;5034084;28;20018;-88
2023/12/05 06:29:39;;;;;;;18.10;10.82;;;;;;;4.41;100.00;99566.78;5033974;28;20013;-87
2023/12/05 06:32:04;;;;;;;17.35;11.07;;;;;;;4.49;100.00;99565.53;5033990;28;20441;-88
2023/12/05 06:34:30;;;;;;;16.73;11.18;;;;;;;4.35;100.00;99572.19;5033144;28;20379;-87
2023/12/05 06:36:55;;;;;;;20.67;11.57;;;;;;;4.31;100.00;99580.88;5033614;28;20017;-88
2023/12/05 06:39:20;;;;;;;16.08;10.82;;;;;;;4.38;100.00;99582.25;5033843;28;20420;-88
2023/12/05 06:41:46;;;;;;;16.10;9.88;;;;;;;4.37;100.00;99593.38;5033554;28;20024;-88
2023/12/05 06:44:12;;;;;;;13.88;9.10;;;;;;;4.34;100.00;99589.25;5032094;28;20029;-87
2023/12/05 06:46:37;;;;;;;14.30;9.90;;;;;;;4.35;100.00;99593.44;5033673;28;20488;-88
2023/12/05 06:49:03;;;;;;;13.48;8.43;;;;;;;4.34;100.00;99598.63;5033567;28;20017;-88
2023/12/05 06:51:28;;;;;;;12.75;9.13;;;;;;;4.26;100.00;99599.78;5033688;28;20065;-88
2023/12/05 06:53:54;;;;;;;14.50;8.93;;;;;;;4.25;100.00;99603.25;5031662;28;20026;-88
2023/12/05 06:56:22;;;;;;;13.85;7.85;;;;;;;4.26;100.00;99610.00;5033357;28;20103;-87
2023/12/05 06:58:47;;;;;;;10.82;6.57;;;;;;;4.23;100.00;99612.69;5033463;28;20028;-88
2023/12/05 07:01:13;;;;;;;11.65;6.45;;;;;;;4.26;100.00;99617.66;5032969;28;20014;-88
2023/12/05 07:03:38;;;;;;;9.27;6.40;;;;;;;4.16;100.00;99613.88;5032114;28;20037;-87
2023/12/05 07:06:05;;;;;;;10.10;6.40;;;;;;;4.28;100.00;99627.84;5033165;28;20025;-87
2023/12/05 07:08:30;;;;;;;12.40;7.55;;;;;;;4.27;100.00;99629.56;5032523;28;20026;-88
2023/12/05 07:10:56;;;;;;;11.93;7.45;;;;;;;4.13;100.00;99636.19;5033136;28;20029;-88
2023/12/05 07:13:21;;;;;;;12.05;7.20;;;;;;;4.04;100.00;99638.22;5032887;28;20472;-87
2023/12/05 07:15:46;;;;;;;11.95;7.47;;;;;;;4.15;100.00;99642.06;5032939;28;20100;-87
2023/12/05 07:18:12;;;;;;;11.40;8.18;;;;;;;4.15;100.00;99647.97;5032833;28;20480;-87
2023/12/05 07:20:37;;;;;;;11.70;7.28;;;;;;;4.11;100.00;99655.84;5032908;28;20006;-87
2023/12/05 07:23:02;;;;;;;10.15;6.97;;;;;;;4.03;100.00;99663.84;5032174;28;20025;-87
2023/12/05 07:25:28;;;;;;;12.75;7.93;;;;;;;4.16;100.00;99667.50;5030994;28;20115;-87
2023/12/05 07:27:54;;;;;;;13.23;8.23;;;;;;;4.15;100.00;99667.59;5031872;28;20025;-87
2023/12/05 07:30:19;;;;;;;12.82;7.82;;;;;;;4.18;100.00;99668.28;5032520;28;20518;-87
2023/12/05 07:32:45;;;;;;;11.52;8.00;;;;;;;3.97;100.00;99674.28;5032507;28;20022;-88
2023/12/05 07:35:10;;;;;;;12.02;8.00;;;;;;;4.06;100.00;99692.59;5031953;28;20032;-86
2023/12/05 07:37:36;;;;;;;11.35;7.38;;;;;;;3.99;100.00;99695.50;5041042;28;20108;-86
2023/12/05 07:40:01;;;;;;;14.98;9.10;;;;;;;4.10;100.00;99698.44;5042212;28;20545;-84
2023/12/05 07:42:27;;;;;;;13.88;9.35;;;;;;;4.05;100.00;99702.91;5037017;28;20033;-85
2023/12/05 07:44:52;;;;;;;12.50;8.23;;;;;;;4.10;100.00;99711.19;5033677;28;20025;-86
2023/12/05 07:47:17;;;;;;;14.30;8.80;;;;;;;4.14;100.00;99711.88;5044395;28;20028;-85
2023/12/05 07:49:44;;;;;;;13.90;8.68;;;;;;;4.16;100.00;99716.03;5051288;28;20025;-85
2023/12/05 07:52:10;;;;;;;14.70;8.57;;;;;;;4.09;100.00;99719.72;5051961;28;20111;-84
2023/12/05 07:54:35;;;;;;;13.80;8.82;;;;;;;4.10;100.00;99718.84;5052191;28;20463;-85
2023/12/05 07:57:01;;;;;;;16.75;9.73;;;;;;;4.22;100.00;99720.88;5039664;28;20017;-84
2023/12/05 07:59:26;;;;;;;12.35;8.80;;;;;;;4.20;100.00;99720.13;5033025;28;20034;-84
2023/12/05 08:01:52;;;;;;;11.32;8.18;;;;;;;4.05;100.00;99719.06;5043493;28;20043;-84
2023/12/05 08:04:17;;;;;;;17.02;10.02;;;;;;;4.10;100.00;99725.66;5051412;28;20028;-84
2023/12/05 08:06:43;;;;;;;13.68;9.57;;;;;;;4.21;100.00;99731.97;5051703;28;20029;-84
2023/12/05 08:09:08;;;;;;;15.57;10.27;;;;;;;4.17;100.00;99732.19;5049167;28;20116;-84
2023/12/05 08:11:35;;;;;;;15.68;9.95;;;;;;;4.24;100.00;99729.31;5029889;28;20072;-86
2023/12/05 08:14:01;;;;;;;14.80;10.05;;;;;;;4.13;100.00;99736.59;5047034;28;20025;-88
2023/12/05 08:16:26;;;;;;;17.13;10.38;;;;;;;4.05;100.00;99738.66;5031264;28;20037;-86
2023/12/05 08:18:51;;;;;;;16.90;10.88;;;;;;;4.20;100.00;99748.22;5048704;28;20031;-85
2023/12/05 08:21:16;;;;;;;17.15;11.10;;;;;;;4.17;100.00;99739.84;5040509;28;20079;-85
2023/12/05 08:23:42;;;;;;;16.13;11.15;;;;;;;4.08;100.00;99748.72;5045231;28;20601;-85
2023/12/05 08:26:07;;;;;;;17.52;11.23;;;;;;;4.14;100.00;99747.63;5039083;28;20078;-85
2023/12/05 08:28:34;;;;;;;17.83;12.27;;;;;;;4.19;100.00;99753.38;5045542;28;20033;-84
2023/12/05 08:30:59;;;;;;;18.27;12.27;;;;;;;4.28;100.00;99765.78;5050908;28;20471;-84
2023/12/05 08:33:25;;;;;;;16.25;11.13;;;;;;;4.25;100.00;99756.50;5051376;28;20028;-84
2023/12/05 08:35:50;;;;;;;17.10;11.70;;;;;;;4.28;100.00;99756.38;5045323;28;20429;-85
2023/12/05 08:38:15;;;;;;;16.02;11.10;;;;;;;4.29;100.00;99762.31;5050176;28;20071;-84
2023/12/05 08:40:41;;;;;;;18.20;12.27;;;;;;;4.29;100.00;99768.28;5042404;28;20422;-84
2023/12/05 08:43:06;;;;;;;14.88;10.48;;;;;;;4.29;100.00;99767.41;5039871;28;20032;-84
2023/12/05 08:45:32;;;;;;;18.40;12.32;;;;;;;4.34;100.00;99773.19;5050939;28;20033;-84
2023/12/05 08:47:57;;;;;;;18.45;12.43;;;;;;;4.37;100.00;99774.78;5051195;28;20032;-85
2023/12/05 08:50:22;;;;;;;15.88;11.38;;;;;;;4.42;100.00;99777.97;5045204;28;20033;-84
2023/12/05 08:52:48;;;;;;;16.50;11.43;;;;;;;4.41;100.00;99778.84;5035757;28;20044;-84
2023/12/05 08:55:14;;;;;;;15.35;11.02;;;;;;;4.40;100.00;99784.88;5043538;28;20041;-84
2023/12/05 08:57:39;;;;;;;17.15;12.25;;;;;;;4.43;100.00;99785.56;5047475;28;20106;-84
2023/12/05 09:00:05;;;;;;;16.70;12.15;;;;;;;4.42;100.00;99795.84;5030133;28;20036;-84
2023/12/05 09:02:31;;;;;;;16.58;11.93;;;;;;;4.46;100.00;99794.81;5051965;28;20029;-85
2023/12/05 09:04:57;;;;;;;16.23;11.57;;;;;;;4.40;100.00;99795.09;5059366;28;20278;-84
2023/12/05 09:07:22;;;;;;;16.75;12.00;;;;;;;4.45;100.00;99808.50;5048917;28;20614;-84
2023/12/05 09:09:48;;;;;;;15.70;11.57;;;;;;;4.49;100.00;99810.84;5037852;28;20061;-84
2023/12/05 09:12:14;;;;;;;17.35;11.85;;;;;;;4.54;100.00;99817.50;5038050;28;20472;-84
2023/12/05 09:14:39;;;;;;;15.23;10.85;;;;;;;4.53;100.00;99816.66;5033068;28;20021;-84
2023/12/05 09:17:06;;;;;;;17.02;12.27;;;;;;;4.45;100.00;99828.94;5042235;28;20036;-84
2023/12/05 09:19:32;;;;;;;14.88;10.65;;;;;;;4.47;100.00;99827.97;5051314;28;20021;-84
2023/12/05 09:21:57;;;;;;;15.40;11.70;;;;;;;4.46;100.00;99830.56;5049990;28;20031;-85
2023/12/05 09:24:22;;;;;;;16.67;11.80;;;;;;;4.48;100.00;99834.72;5051154;28;20029;-85
2023/12/05 09:26:48;;;;;;;17.02;11.02;;;;;;;4.58;100.00;99834.34;5048662;28;20037;-84
2023/12/05 09:29:13;;;;;;;13.98;10.13;;;;;;;4.61;100.00;99837.63;5042157;28;20494;-85
2023/12/05 09:31:38;;;;;;;16.65;11.00;;;;;;;4.67;100.00;99850.13;5051347;28;20103;-84
2023/12/05 09:34:04;;;;;;;15.43;10.88;;;;;;;4.67;100.00;99859.53;5031481;28;20087;-84
2023/12/05 09:36:30;;;;;;;13.77;10.93;;;;;;;4.68;100.00;99861.16;5031535;28;20029;-84
2023/12/05 09:38:56;;;;;;;14.32;10.13;;;;;;;4.64;100.00;99864.78;5031266;28;20025;-84
2023/12/05 09:41:22;;;;;;;14.75;9.52;;;;;;;4.69;100.00;99867.97;5031198;28;20541;-84
2023/12/05 09:43:51;;;;;;;16.25;10.20;;;;;;;4.67;100.00;99878.25;5029918;28;20399;-84
2023/12/05 09:46:20;;;;;;;15.20;10.00;;;;;;;4.74;100.00;99875.44;5029675;28;20045;-84
2023/12/05 09:48:47;;;;;;;13.80;9.40;;;;;;;4.68;100.00;99886.72;5034094;28;20085;-84
2023/12/05 09:51:16;;;;;;;14.18;10.75;;;;;;;4.69;100.00;99888.41;5035596;28;20383;-85
2023/12/05 09:53:43;;;;;;;15.57;10.75;;;;;;;4.69;100.00;99891.78;5034456;28;20026;-84
2023/12/05 09:56:10;;;;;;;14.10;10.27;;;;;;;4.75;100.00;99902.66;5034566;28;20028;-84
2023/12/05 09:58:41;;;;;;;13.30;9.85;;;;;;;4.75;100.00;99907.75;5034525;28;20369;-84
2023/12/05 10:01:09;;;;;;;10.95;9.13;;;;;;;4.78;100.00;99907.63;5033051;28;20044;-84
2023/12/05 10:03:38;;;;;;;12.23;8.65;;;;;;;4.79;100.00;99915.25;5034364;28;20448;-84
2023/12/05 10:06:06;;;;;;;12.65;9.18;;;;;;;4.72;100.00;99927.44;5035143;28;20028;-84
2023/12/05 10:08:33;;;;;;;13.60;9.73;;;;;;;4.82;100.00;99927.06;5034526;28;20025;-84
2023/12/05 10:11:00;;;;;;;12.65;8.48;;;;;;;4.83;100.00;99932.13;5034727;28;20034;-84
2023/12/05 10:13:26;;;;;;;13.13;8.43;;;;;;;4.89;100.00;99936.16;5034160;28;20014;-84
2023/12/05 10:15:51;;;;;;;11.57;8.02;;;;;;;4.92;100.00;99931.72;5034195;28;20032;-84
2023/12/05 10:18:18;;;;;;;11.07;8.38;;;;;;;4.88;100.00;99932.75;5034348;28;20013;-84
2023/12/05 10:20:43;;;;;;;11.70;7.93;;;;;;;4.94;100.00;99945.28;5034218;28;20033;-84
2023/12/05 10:23:09;;;;;;;10.50;7.72;;;;;;;4.92;100.00;99941.94;5033330;28;20036;-84
2023/12/05 10:25:34;;;;;;;11.05;8.35;;;;;;;4.88;100.00;99949.84;5033880;28;20415;-84
2023/12/05 10:28:03;;;;;;;11.80;7.63;;;;;;;5.03;100.00;99954.31;5032701;28;20068;-84
2023/12/05 10:30:33;;;;;;;10.90;7.68;;;;;;;5.07;100.00;99960.09;5033923;28;20053;-84
2023/12/05 10:33:18;;;;;;;12.15;8.40;;;;;;;5.00;100.00;99946.75;5034027;28;20017;-85
2023/12/05 10:35:45;;;;;;;10.80;7.13;;;;;;;4.96;100.00;99955.44;5032633;28;20112;-84
2023/12/05 10:38:12;;;;;;;10.02;7.43;;;;;;;5.02;100.00;99957.75;5033717;28;20382;-84
2023/12/05 10:40:57;;;;;;;7.47;6.18;;;;;;;5.06;100.00;99964.41;5033912;28;20021;-84
2023/12/05 10:43:24;;;;;;;9.82;7.10;;;;;;;5.00;100.00;99969.78;5033808;28;20060;-84
2023/12/05 10:45:51;;;;;;;10.65;7.10;;;;;;;4.94;100.00;99977.69;5033935;28;20055;-84
2023/12/05 10:48:17;;;;;;;9.35;6.65;;;;;;;4.98;100.00;99976.69;5033719;28;20021;-84
2023/12/05 10:50:45;;;;;;;13.00;7.00;;;;;;;4.93;100.00;99978.59;5033269;28;20033;-85
2023/12/05 10:53:11;;;;;;;9.23;6.97;;;;;;;5.04;100.00;99985.81;5033344;28;20025;-84
2023/12/05 10:55:36;;;;;;;9.68;6.50;;;;;;;5.10;100.00;99983.84;5033453;28;20517;-84
2023/12/05 10:58:02;;;;;;;9.20;7.10;;;;;;;4.98;100.00;99984.34;5033375;28;20032;-84
2023/12/05 11:00:28;;;;;;;8.98;6.57;;;;;;;4.96;100.00;99987.88;5032172;28;20025;-84
2023/12/05 11:02:54;;;;;;;12.30;7.00;;;;;;;5.09;100.00;99992.41;5033285;28;20502;-84
2023/12/05 11:05:21;;;;;;;8.95;6.93;;;;;;;5.12;100.00;99989.72;5032752;28;20025;-84
2023/12/05 11:07:46;;;;;;;7.63;6.55;;;;;;;5.17;100.00;100001.47;5033915;28;20502;-84
2023/12/05 11:10:12;;;;;;;11.27;7.10;;;;;;;5.20;100.00;100009.03;5033270;28;20053;-84
2023/12/05 11:12:39;;;;;;;9.18;6.47;;;;;;;5.15;100.00;100004.94;5033248;28;20029;-84
2023/12/05 11:15:07;;;;;;;12.65;6.47;;;;;;;5.15;100.00;100010.06;5033063;28;20056;-84
2023/12/05 11:17:41;;;;;;;7.20;6.10;;;;;;;5.20;100.00;100011.59;5032421;28;20116;-84
2023/12/05 11:20:24;;;;;;;10.27;6.78;;;;;;;5.32;100.00;100017.03;5032999;28;20022;-84
2023/12/05 11:23:10;;;;;;;10.10;6.22;;;;;;;5.44;100.00;100020.78;5033148;28;20044;-84